ěÝzenÝ letovÚho provozu ╚eskÚ republiky
Letiste: LKMT Aktualizace: 02.12.2023 00:00:42  UTC
 METAR LKMT 02.12. 00:00 ...
METAR LKMT 020000Z 03010KT 1600 SN BR OVC004 M01/M01 Q1002 NOSIG=
 TAF LKMT 01.12. 23:00 ...
TAF LKMT 012300Z 0200/0300 02012KT 2500 -SN BR SCT004 OVC009      TEMPO 0200/0221 1200 SN BR OVC003      TEMPO 0206/0218 36015G25KT      TEMPO 0221/0300 BKN004=
 WARNING LKMT 01.12. 22:00 ...
LKMT AD WRNG 5 VALID 012215/020115 SN 4CM OBS NC=